Time;durP1;ratioP1;P1;durP2;ratioP2;P2;SDS_P1;SDS_P2;PMS_P1;PMS_P2;Temp;Humidity;BMP_temperature;BMP_pressure;BME280_temperature;BME280_humidity;BME280_pressure;Samples;Min_cycle;Max_cycle;Signal;HPM_P1;HPM_P2
2024/03/01 00:00:40;;;;;;;11.88;10.18;;;10.50;72.90;;;;;;2077460;28;20049;-66
2024/03/01 00:01:41;;;;;;;13.57;10.35;;;10.60;73.00;;;;;;2079506;28;20052;-66
2024/03/01 00:02:41;;;;;;;12.15;9.77;;;10.60;73.10;;;;;;2081170;28;20040;-69
2024/03/01 00:03:42;;;;;;;17.15;11.20;;;10.60;73.30;;;;;;2077854;28;20157;-66
2024/03/01 00:04:42;;;;;;;13.88;10.32;;;10.60;73.20;;;;;;2076902;28;20044;-67
2024/03/01 00:05:43;;;;;;;12.20;9.73;;;10.60;73.20;;;;;;2075736;28;20092;-66
2024/03/01 00:06:44;;;;;;;13.00;10.77;;;10.60;73.60;;;;;;2075099;28;20037;-66
2024/03/01 00:07:45;;;;;;;13.13;10.70;;;10.60;73.40;;;;;;2075434;28;20482;-66
2024/03/01 00:08:45;;;;;;;15.05;10.77;;;10.60;73.50;;;;;;2075928;28;20402;-67
2024/03/01 00:09:46;;;;;;;13.63;10.60;;;10.60;73.60;;;;;;2077780;28;20029;-66
2024/03/01 00:10:46;;;;;;;12.77;10.32;;;10.60;73.70;;;;;;2079551;28;20029;-67
2024/03/01 00:11:47;;;;;;;17.55;11.65;;;10.60;73.90;;;;;;2074466;28;20045;-66
2024/03/01 00:12:47;;;;;;;14.13;10.80;;;10.60;74.00;;;;;;2077111;28;20030;-66
2024/03/01 00:13:48;;;;;;;13.38;9.98;;;10.60;74.00;;;;;;2076997;28;20494;-66
2024/03/01 00:14:49;;;;;;;13.02;9.65;;;10.60;74.00;;;;;;2076381;28;20080;-67
2024/03/01 00:15:49;;;;;;;13.35;10.50;;;10.60;74.20;;;;;;2078639;28;20343;-67
2024/03/01 00:16:50;;;;;;;13.13;10.55;;;10.60;74.20;;;;;;2077087;28;20053;-67
2024/03/01 00:17:51;;;;;;;13.40;9.85;;;10.60;74.30;;;;;;2077804;28;20026;-66
2024/03/01 00:18:52;;;;;;;11.45;9.63;;;10.70;74.40;;;;;;2075811;28;20021;-66
2024/03/01 00:19:52;;;;;;;13.00;9.93;;;10.60;74.40;;;;;;2076111;28;20065;-67
2024/03/01 00:20:53;;;;;;;11.90;9.65;;;10.70;74.50;;;;;;2072803;28;20520;-67
2024/03/01 00:21:53;;;;;;;12.95;9.85;;;10.70;74.50;;;;;;2059158;28;20043;-66
2024/03/01 00:22:56;;;;;;;12.65;9.70;;;10.60;74.60;;;;;;2056237;28;20027;-67
2024/03/01 00:23:57;;;;;;;13.48;10.40;;;10.70;74.60;;;;;;2061801;28;20043;-67
2024/03/01 00:24:57;;;;;;;12.00;9.65;;;10.70;74.70;;;;;;2069379;28;20486;-67
2024/03/01 00:25:58;;;;;;;14.57;10.57;;;10.70;74.80;;;;;;2070466;28;20030;-72
2024/03/01 00:27:01;;;;;;;14.15;9.90;;;10.70;75.00;;;;;;2067695;28;20029;-73
2024/03/01 00:28:01;;;;;;;13.30;10.10;;;10.70;75.00;;;;;;2069785;28;20030;-74
2024/03/01 00:29:03;;;;;;;11.90;9.45;;;10.70;75.10;;;;;;2071137;28;20510;-72
2024/03/01 00:30:04;;;;;;;14.05;10.43;;;10.70;75.10;;;;;;2071845;28;20026;-73
2024/03/01 00:31:04;;;;;;;14.27;11.27;;;10.80;75.20;;;;;;2071187;28;20033;-73
2024/03/01 00:32:05;;;;;;;14.95;10.32;;;10.80;75.30;;;;;;2069440;28;20068;-72
2024/03/01 00:33:06;;;;;;;14.40;10.80;;;10.80;75.20;;;;;;2069860;28;20448;-72
2024/03/01 00:34:06;;;;;;;14.25;11.43;;;10.80;75.40;;;;;;2071369;28;20026;-73
2024/03/01 00:35:07;;;;;;;13.60;10.73;;;10.80;75.80;;;;;;2071052;28;20046;-73
2024/03/01 00:36:08;;;;;;;12.73;10.10;;;10.70;76.20;;;;;;2066111;28;20037;-74
2024/03/01 00:37:08;;;;;;;13.77;10.63;;;10.80;75.60;;;;;;2071185;28;20022;-72
2024/03/01 00:38:09;;;;;;;14.18;12.00;;;10.80;75.80;;;;;;2069204;28;20328;-72
2024/03/01 00:39:09;;;;;;;14.07;11.02;;;10.80;75.80;;;;;;2059989;28;20029;-72
2024/03/01 00:40:10;;;;;;;13.77;10.73;;;10.80;75.80;;;;;;2059133;28;20033;-73
2024/03/01 00:41:11;;;;;;;17.25;11.85;;;10.80;75.80;;;;;;2068113;28;20029;-72
2024/03/01 00:42:12;;;;;;;13.48;10.88;;;10.80;76.00;;;;;;2071229;28;20033;-72
2024/03/01 00:43:12;;;;;;;14.30;11.70;;;10.80;76.00;;;;;;2069259;28;20112;-74
2024/03/01 00:44:13;;;;;;;16.10;12.07;;;10.80;75.90;;;;;;2067282;28;20340;-74
2024/03/01 00:45:14;;;;;;;14.70;11.25;;;10.80;76.10;;;;;;2071164;28;20046;-72
2024/03/01 00:46:15;;;;;;;16.20;12.25;;;10.80;76.10;;;;;;2068794;28;20399;-72
2024/03/01 00:47:15;;;;;;;13.75;11.10;;;10.80;76.40;;;;;;2067777;28;20105;-71
2024/03/01 00:48:16;;;;;;;13.70;10.75;;;10.80;76.40;;;;;;2067715;28;20022;-73
2024/03/01 00:49:16;;;;;;;15.48;11.68;;;10.80;76.40;;;;;;2066790;28;20061;-72
2024/03/01 00:50:20;;;;;;;13.85;11.68;;;10.80;77.20;;;;;;2070128;28;20053;-72
2024/03/01 00:51:21;;;;;;;16.77;12.07;;;10.80;76.70;;;;;;2068379;28;20037;-72
2024/03/01 00:52:22;;;;;;;13.85;11.38;;;10.80;76.50;;;;;;2068049;28;20053;-72
2024/03/01 00:53:25;;;;;;;17.25;12.02;;;10.80;76.60;;;;;;2069542;28;20177;-74
2024/03/01 00:54:25;;;;;;;16.95;12.32;;;10.80;76.70;;;;;;2067815;28;20028;-73
2024/03/01 00:55:26;;;;;;;16.52;12.10;;;10.80;76.60;;;;;;2062713;28;20025;-74
2024/03/01 00:56:27;;;;;;;17.35;12.32;;;10.90;76.80;;;;;;2062145;28;20049;-74
2024/03/01 00:57:27;;;;;;;16.25;13.23;;;10.90;76.90;;;;;;2070170;28;20148;-74
2024/03/01 00:58:28;;;;;;;14.02;11.65;;;10.80;76.90;;;;;;2070184;28;20706;-72
2024/03/01 00:59:28;;;;;;;16.23;13.02;;;10.80;77.10;;;;;;2070755;28;20021;-72
2024/03/01 01:00:29;;;;;;;16.83;12.73;;;10.80;77.10;;;;;;2065414;28;20029;-73
2024/03/01 01:01:29;;;;;;;15.63;12.23;;;10.80;77.90;;;;;;2068292;28;20375;-73
2024/03/01 01:02:30;;;;;;;16.10;12.40;;;10.80;77.20;;;;;;2069199;28;20069;-75
2024/03/01 01:03:33;;;;;;;16.88;12.88;;;10.80;77.30;;;;;;2070787;28;20083;-72
2024/03/01 01:04:34;;;;;;;16.92;12.68;;;10.80;77.30;;;;;;2069001;28;20042;-74
2024/03/01 01:05:34;;;;;;;15.63;12.27;;;10.80;77.40;;;;;;2067081;28;20050;-73
2024/03/01 01:06:35;;;;;;;15.10;11.93;;;10.80;77.50;;;;;;2067555;28;20158;-73
2024/03/01 01:07:36;;;;;;;15.68;12.30;;;10.90;77.50;;;;;;2070864;28;20066;-72
2024/03/01 01:08:37;;;;;;;16.58;12.70;;;10.90;77.50;;;;;;2067497;28;20030;-73
2024/03/01 01:09:37;;;;;;;13.43;11.23;;;10.80;77.70;;;;;;2067604;28;20034;-73
2024/03/01 01:10:38;;;;;;;18.80;12.60;;;10.90;77.90;;;;;;2067574;28;20034;-73
2024/03/01 01:11:38;;;;;;;16.20;12.63;;;10.90;78.10;;;;;;2066527;28;20046;-71
2024/03/01 01:12:39;;;;;;;18.75;12.82;;;10.90;78.10;;;;;;2067216;28;20039;-72
2024/03/01 01:13:39;;;;;;;16.30;12.98;;;10.90;78.30;;;;;;2066924;28;20034;-73
2024/03/01 01:14:40;;;;;;;16.55;12.80;;;10.90;78.40;;;;;;2068737;28;20386;-72
2024/03/01 01:15:40;;;;;;;16.25;13.13;;;10.90;78.40;;;;;;2069528;28;20029;-73
2024/03/01 01:16:41;;;;;;;16.40;13.05;;;10.90;78.50;;;;;;2067464;28;20391;-73
2024/03/01 01:17:41;;;;;;;14.85;11.90;;;10.90;78.40;;;;;;2069170;28;20109;-72
2024/03/01 01:18:42;;;;;;;16.50;13.02;;;10.80;78.50;;;;;;2067701;28;20022;-72
2024/03/01 01:19:43;;;;;;;17.25;13.57;;;10.80;78.50;;;;;;2067530;28;20454;-72
2024/03/01 01:20:45;;;;;;;15.82;12.82;;;10.80;78.50;;;;;;2072389;28;20044;-72
2024/03/01 01:21:46;;;;;;;20.35;13.60;;;10.80;78.90;;;;;;2076846;28;20108;-72
2024/03/01 01:22:52;;;;;;;17.58;13.00;;;10.80;79.00;;;;;;2076788;28;20029;-74
2024/03/01 01:23:53;;;;;;;17.52;13.38;;;10.80;79.00;;;;;;2076039;28;20026;-72
2024/03/01 01:24:53;;;;;;;17.48;12.75;;;10.80;78.90;;;;;;2067307;28;20073;-74
2024/03/01 01:25:54;;;;;;;17.02;13.32;;;10.80;79.00;;;;;;2068042;28;20109;-74
2024/03/01 01:26:54;;;;;;;17.33;13.65;;;10.80;79.10;;;;;;2073630;28;20375;-73
2024/03/01 01:27:58;;;;;;;15.50;12.40;;;10.80;79.00;;;;;;2077567;28;21602;-74
2024/03/01 01:28:59;;;;;;;16.83;13.32;;;10.80;79.00;;;;;;2076666;28;20061;-73
2024/03/01 01:29:59;;;;;;;15.48;12.75;;;10.80;79.00;;;;;;2076544;28;20082;-73
2024/03/01 01:31:03;;;;;;;16.55;13.00;;;10.80;78.90;;;;;;2074461;28;20033;-73
2024/03/01 01:32:04;;;;;;;15.68;12.73;;;10.80;78.80;;;;;;2076900;28;20116;-73
2024/03/01 01:33:04;;;;;;;17.20;13.23;;;10.80;78.80;;;;;;2076635;28;20028;-73
2024/03/01 01:34:05;;;;;;;17.67;13.07;;;10.80;78.80;;;;;;2078321;28;20029;-72
2024/03/01 01:35:06;;;;;;;18.00;13.15;;;10.80;78.70;;;;;;2074875;28;20075;-73
2024/03/01 01:36:09;;;;;;;16.70;12.82;;;10.80;78.70;;;;;;2074816;28;20018;-71
2024/03/01 01:37:10;;;;;;;16.70;12.25;;;10.80;78.90;;;;;;2069560;28;20022;-72
2024/03/01 01:38:11;;;;;;;16.85;11.93;;;10.80;78.70;;;;;;2071138;28;20122;-73
2024/03/01 01:39:11;;;;;;;17.80;12.90;;;10.80;78.70;;;;;;2063850;28;20026;-72
2024/03/01 01:40:12;;;;;;;15.32;12.40;;;10.80;78.70;;;;;;2078913;28;20025;-73
2024/03/01 01:41:13;;;;;;;15.95;12.57;;;10.80;78.90;;;;;;2075908;28;20593;-72
2024/03/01 01:42:13;;;;;;;15.98;12.73;;;10.70;78.90;;;;;;2074847;28;20466;-73
2024/03/01 01:43:14;;;;;;;16.83;12.30;;;10.70;78.90;;;;;;2075248;28;20026;-73
2024/03/01 01:44:15;;;;;;;17.02;12.32;;;10.70;78.80;;;;;;2077366;28;20018;-72
2024/03/01 01:45:16;;;;;;;19.40;12.70;;;10.70;78.90;;;;;;2075511;28;20057;-73
2024/03/01 01:46:17;;;;;;;18.75;14.18;;;10.70;78.90;;;;;;2075710;28;20099;-72
2024/03/01 01:47:17;;;;;;;16.05;12.38;;;10.70;79.00;;;;;;2075783;28;20049;-73
2024/03/01 01:48:24;;;;;;;16.15;12.63;;;10.70;79.10;;;;;;2074094;28;20029;-73
2024/03/01 01:49:27;;;;;;;14.80;12.13;;;10.70;79.10;;;;;;2076444;28;20026;-73
2024/03/01 01:50:27;;;;;;;16.85;13.80;;;10.60;79.10;;;;;;2076373;28;20028;-73
2024/03/01 01:51:32;;;;;;;16.83;13.30;;;10.60;79.10;;;;;;2076802;28;20033;-73
2024/03/01 01:52:33;;;;;;;16.30;12.95;;;10.60;79.10;;;;;;2075521;28;20022;-73
2024/03/01 01:53:34;;;;;;;16.20;12.85;;;10.60;79.20;;;;;;2075643;28;20018;-72
2024/03/01 01:54:46;;;;;;;16.65;12.85;;;10.60;79.20;;;;;;2076586;28;20091;-71
2024/03/01 01:55:53;;;;;;;16.90;13.27;;;10.50;79.30;;;;;;2075007;28;20037;-72
2024/03/01 01:56:54;;;;;;;16.95;13.75;;;10.50;79.40;;;;;;2076094;28;20029;-70
2024/03/01 01:57:55;;;;;;;16.63;12.90;;;10.50;79.40;;;;;;2069083;28;20029;-72
2024/03/01 01:58:56;;;;;;;17.00;12.80;;;10.50;79.60;;;;;;2067013;28;20404;-73
2024/03/01 01:59:58;;;;;;;17.60;12.73;;;10.50;79.50;;;;;;2075337;28;20383;-72
2024/03/01 02:00:59;;;;;;;17.98;13.32;;;10.50;79.60;;;;;;2076871;28;20383;-71
2024/03/01 02:02:01;;;;;;;18.08;13.10;;;10.50;79.70;;;;;;2075046;28;20036;-71
2024/03/01 02:03:01;;;;;;;16.17;12.88;;;10.40;79.60;;;;;;2072062;28;20111;-73
2024/03/01 02:04:03;;;;;;;19.33;13.63;;;10.40;79.60;;;;;;2071526;28;20026;-71
2024/03/01 02:05:04;;;;;;;15.65;13.23;;;10.40;79.80;;;;;;2066640;28;20518;-73
2024/03/01 02:06:06;;;;;;;20.15;13.30;;;10.40;79.90;;;;;;2069710;28;20397;-72
2024/03/01 02:07:06;;;;;;;16.67;12.85;;;10.40;80.00;;;;;;2076243;28;20038;-73
2024/03/01 02:08:07;;;;;;;17.83;13.68;;;10.30;80.00;;;;;;2075312;28;20635;-73
2024/03/01 02:09:17;;;;;;;16.50;12.60;;;10.30;80.10;;;;;;2076926;28;20033;-73
2024/03/01 02:10:19;;;;;;;15.13;11.93;;;10.30;80.20;;;;;;2075910;28;20795;-72
2024/03/01 02:11:19;;;;;;;17.95;13.45;;;10.30;80.20;;;;;;2077577;28;20548;-73
2024/03/01 02:12:21;;;;;;;15.82;13.00;;;10.30;80.30;;;;;;2077355;28;20681;-73
2024/03/01 02:13:22;;;;;;;19.40;12.90;;;10.30;80.50;;;;;;2075620;28;20033;-73
2024/03/01 02:14:22;;;;;;;17.17;12.63;;;10.30;80.60;;;;;;2074515;28;20021;-73
2024/03/01 02:15:28;;;;;;;16.38;13.77;;;10.20;80.60;;;;;;2078125;28;20335;-73
2024/03/01 02:16:34;;;;;;;15.20;12.48;;;10.20;80.70;;;;;;2076753;28;20110;-72
2024/03/01 02:17:35;;;;;;;16.02;12.50;;;10.20;80.80;;;;;;2071339;28;20538;-73
2024/03/01 02:18:35;;;;;;;18.38;13.02;;;10.20;80.90;;;;;;2070787;28;20347;-72
2024/03/01 02:19:36;;;;;;;16.30;13.02;;;10.20;81.00;;;;;;2074528;28;20033;-73
2024/03/01 02:20:43;;;;;;;17.25;12.27;;;10.20;81.00;;;;;;2075124;28;20044;-73
2024/03/01 02:22:05;;;;;;;16.13;12.45;;;10.20;81.10;;;;;;2075254;28;20533;-73
2024/03/01 02:23:13;;;;;;;16.80;12.77;;;10.10;81.50;;;;;;2076099;28;20033;-72
2024/03/01 02:24:13;;;;;;;19.27;12.52;;;10.10;81.80;;;;;;2078382;28;20113;-73
2024/03/01 02:25:14;;;;;;;17.63;13.38;;;10.10;81.80;;;;;;2076587;28;20465;-73
2024/03/01 02:26:15;;;;;;;17.75;12.43;;;10.10;81.70;;;;;;2075570;28;21148;-73
2024/03/01 02:27:15;;;;;;;18.00;13.13;;;10.10;81.90;;;;;;2076822;28;20100;-73
2024/03/01 02:28:16;;;;;;;14.93;11.55;;;10.10;81.90;;;;;;2076122;28;20366;-73
2024/03/01 02:29:16;;;;;;;16.48;12.68;;;10.10;82.00;;;;;;2076842;28;20076;-71
2024/03/01 02:30:17;;;;;;;17.98;13.27;;;10.00;82.00;;;;;;2076285;28;20104;-73
2024/03/01 02:31:17;;;;;;;18.40;13.18;;;10.10;82.20;;;;;;2075774;28;20508;-71
2024/03/01 02:32:18;;;;;;;17.63;12.75;;;10.00;82.30;;;;;;2062145;28;20443;-73
2024/03/01 02:33:22;;;;;;;17.30;12.55;;;10.00;82.40;;;;;;2068497;28;20109;-72
2024/03/01 02:34:24;;;;;;;17.52;12.90;;;10.00;82.40;;;;;;2076792;28;20037;-73
2024/03/01 02:35:25;;;;;;;15.63;12.45;;;10.00;82.50;;;;;;2078126;28;20022;-73
2024/03/01 02:36:25;;;;;;;16.10;12.60;;;10.00;82.60;;;;;;2078367;28;20666;-73
2024/03/01 02:37:26;;;;;;;15.95;12.45;;;10.00;82.60;;;;;;2077597;28;20414;-73
2024/03/01 02:38:28;;;;;;;15.75;12.27;;;10.00;82.80;;;;;;2078782;28;20037;-72
2024/03/01 02:39:28;;;;;;;17.02;13.00;;;10.00;83.10;;;;;;2070815;28;20093;-72
2024/03/01 02:40:29;;;;;;;19.38;12.82;;;10.00;83.20;;;;;;2074634;28;20112;-73
2024/03/01 02:41:30;;;;;;;14.70;12.25;;;10.00;83.20;;;;;;2079958;28;20536;-73
2024/03/01 02:42:33;;;;;;;16.73;13.05;;;10.00;83.30;;;;;;2077749;28;20038;-73
2024/03/01 02:43:34;;;;;;;17.38;12.95;;;9.90;83.30;;;;;;2078772;28;20059;-72
2024/03/01 02:44:35;;;;;;;15.32;12.68;;;9.90;83.30;;;;;;2079259;28;20049;-72
2024/03/01 02:45:36;;;;;;;17.83;12.98;;;9.90;83.40;;;;;;2079331;28;20032;-73
2024/03/01 02:46:37;;;;;;;17.45;12.48;;;9.90;83.40;;;;;;2080021;28;20033;-73
2024/03/01 02:47:38;;;;;;;17.75;14.10;;;9.90;83.60;;;;;;2073759;28;20034;-72
2024/03/01 02:48:38;;;;;;;16.80;12.27;;;9.90;83.70;;;;;;2071915;28;20029;-73
2024/03/01 02:49:40;;;;;;;16.95;12.73;;;9.90;83.80;;;;;;2080050;28;20088;-71
2024/03/01 02:50:41;;;;;;;16.13;12.75;;;9.90;83.90;;;;;;2068085;28;20379;-72
2024/03/01 02:51:49;;;;;;;15.43;12.52;;;9.90;84.00;;;;;;2069624;28;20296;-72
2024/03/01 02:52:49;;;;;;;18.20;12.68;;;9.90;84.10;;;;;;2080473;28;20386;-72
2024/03/01 02:53:50;;;;;;;16.95;12.70;;;9.80;84.00;;;;;;2078698;28;20297;-72
2024/03/01 02:54:51;;;;;;;16.48;13.15;;;9.90;84.20;;;;;;2078544;28;20705;-73
2024/03/01 02:55:51;;;;;;;15.90;13.23;;;9.90;84.30;;;;;;2078137;28;20112;-72
2024/03/01 02:56:52;;;;;;;18.35;12.77;;;9.80;84.30;;;;;;2077577;28;20033;-73
2024/03/01 02:57:54;;;;;;;17.02;13.13;;;9.80;84.30;;;;;;2078835;28;20474;-73
2024/03/01 02:58:55;;;;;;;16.77;13.25;;;9.90;84.40;;;;;;2078160;28;20022;-73
2024/03/01 02:59:58;;;;;;;19.67;13.65;;;9.80;84.50;;;;;;2079182;28;20037;-74
2024/03/01 03:00:59;;;;;;;17.38;13.68;;;9.80;84.70;;;;;;2079600;28;20397;-73
2024/03/01 03:01:59;;;;;;;19.83;14.40;;;9.80;84.80;;;;;;2076963;28;20048;-74
2024/03/01 03:03:00;;;;;;;16.40;12.85;;;9.80;85.00;;;;;;2082763;28;20433;-72
2024/03/01 03:04:00;;;;;;;16.83;13.80;;;9.80;85.10;;;;;;2078636;28;20034;-72
2024/03/01 03:05:01;;;;;;;18.63;13.70;;;9.80;85.30;;;;;;2077465;28;20382;-73
2024/03/01 03:06:01;;;;;;;20.27;14.30;;;9.80;85.40;;;;;;2080490;28;20053;-72
2024/03/01 03:07:02;;;;;;;17.98;13.65;;;9.80;85.40;;;;;;2078585;28;20025;-71
2024/03/01 03:08:05;;;;;;;19.52;13.70;;;9.80;85.50;;;;;;2078098;28;20113;-71
2024/03/01 03:09:09;;;;;;;17.23;13.02;;;9.80;85.90;;;;;;2078120;28;20029;-73
2024/03/01 03:10:10;;;;;;;19.80;13.73;;;9.70;86.00;;;;;;2078067;28;20025;-72
2024/03/01 03:11:10;;;;;;;19.92;15.23;;;9.70;86.20;;;;;;2079334;28;20048;-73
2024/03/01 03:12:11;;;;;;;21.48;15.20;;;9.70;86.20;;;;;;2077596;28;20025;-73
2024/03/01 03:13:12;;;;;;;17.95;13.95;;;9.70;86.10;;;;;;2079535;28;20025;-73
2024/03/01 03:14:13;;;;;;;18.13;14.35;;;9.70;86.10;;;;;;2076360;28;20050;-72
2024/03/01 03:15:14;;;;;;;21.70;15.68;;;9.80;87.00;;;;;;2078465;28;20031;-73
2024/03/01 03:16:17;;;;;;;17.58;13.60;;;9.80;86.40;;;;;;2078868;28;20048;-73
2024/03/01 03:17:18;;;;;;;19.05;13.93;;;9.80;86.50;;;;;;2068774;28;20441;-73
2024/03/01 03:18:18;;;;;;;21.10;14.60;;;9.80;86.50;;;;;;2070882;28;20018;-73
2024/03/01 03:19:19;;;;;;;17.88;14.25;;;9.80;86.60;;;;;;2079232;28;20030;-73
2024/03/01 03:20:19;;;;;;;19.67;14.65;;;9.80;86.60;;;;;;2079427;28;20434;-72
2024/03/01 03:21:20;;;;;;;19.35;15.27;;;9.80;86.70;;;;;;2067459;28;20029;-73
2024/03/01 03:22:21;;;;;;;23.63;15.75;;;9.80;87.00;;;;;;2071309;28;20483;-73
2024/03/01 03:23:21;;;;;;;18.70;14.52;;;9.80;86.90;;;;;;2076368;28;20068;-72
2024/03/01 03:24:22;;;;;;;21.15;15.32;;;9.80;87.00;;;;;;2076619;28;20064;-73
2024/03/01 03:25:26;;;;;;;20.05;14.60;;;9.80;87.10;;;;;;2076740;28;20116;-74
2024/03/01 03:26:26;;;;;;;19.75;14.82;;;9.80;87.20;;;;;;2078376;28;20029;-73
2024/03/01 03:27:27;;;;;;;27.45;15.65;;;9.80;87.10;;;;;;2078586;28;20025;-74
2024/03/01 03:28:27;;;;;;;19.17;14.63;;;9.80;87.90;;;;;;2079122;28;20014;-71
2024/03/01 03:29:28;;;;;;;18.73;14.20;;;9.80;87.40;;;;;;2077345;28;20025;-72
2024/03/01 03:30:29;;;;;;;19.00;14.57;;;9.70;87.30;;;;;;2078447;28;20111;-70
2024/03/01 03:31:29;;;;;;;20.50;15.00;;;9.80;87.60;;;;;;2078240;28;20030;-72
2024/03/01 03:32:30;;;;;;;19.98;15.50;;;9.70;87.60;;;;;;2078857;28;20029;-73
2024/03/01 03:33:30;;;;;;;23.35;14.88;;;9.70;87.80;;;;;;2076270;28;20030;-71
2024/03/01 03:34:32;;;;;;;20.35;15.35;;;9.70;87.80;;;;;;2077008;28;20486;-72
2024/03/01 03:35:33;;;;;;;19.50;14.68;;;9.70;87.80;;;;;;2075037;28;20013;-72
2024/03/01 03:36:33;;;;;;;17.30;13.95;;;9.70;87.80;;;;;;2070402;28;20018;-70
2024/03/01 03:37:34;;;;;;;20.58;15.05;;;9.70;88.00;;;;;;2073023;28;20550;-72
2024/03/01 03:38:35;;;;;;;18.55;13.90;;;9.70;88.10;;;;;;2078385;28;20025;-73
2024/03/01 03:39:35;;;;;;;20.23;15.07;;;9.70;88.20;;;;;;2069471;28;20026;-71
2024/03/01 03:40:36;;;;;;;18.30;14.52;;;9.70;88.40;;;;;;2068343;28;20052;-71
2024/03/01 03:41:36;;;;;;;17.73;13.93;;;9.70;88.40;;;;;;2074873;28;20040;-72
2024/03/01 03:42:37;;;;;;;18.77;14.20;;;9.70;88.40;;;;;;2078197;28;20113;-73
2024/03/01 03:43:38;;;;;;;21.20;15.60;;;9.70;88.80;;;;;;2077945;28;20030;-66
2024/03/01 03:44:38;;;;;;;21.40;15.02;;;9.60;89.10;;;;;;2078329;28;20036;-67
2024/03/01 03:45:40;;;;;;;20.13;14.70;;;9.60;89.50;;;;;;2079260;28;20033;-67
2024/03/01 03:46:41;;;;;;;22.13;14.70;;;9.60;89.70;;;;;;2071936;28;20121;-66
2024/03/01 03:47:41;;;;;;;18.08;13.60;;;9.60;89.50;;;;;;2071093;28;20062;-66
2024/03/01 03:48:42;;;;;;;19.45;14.75;;;9.60;89.60;;;;;;2076108;28;20049;-66
2024/03/01 03:49:46;;;;;;;17.92;14.75;;;9.60;89.70;;;;;;2078292;28;20033;-66
2024/03/01 03:50:53;;;;;;;19.95;15.10;;;9.60;90.00;;;;;;2074513;28;20033;-66
2024/03/01 03:51:53;;;;;;;18.50;14.68;;;9.60;89.80;;;;;;2076987;28;20113;-65
2024/03/01 03:52:55;;;;;;;18.17;15.02;;;9.60;90.20;;;;;;2078044;28;20116;-68
2024/03/01 03:53:56;;;;;;;20.48;15.57;;;9.50;90.10;;;;;;2075832;28;20092;-66
2024/03/01 03:54:57;;;;;;;21.13;13.63;;;9.50;90.20;;;;;;2076569;28;20028;-66
2024/03/01 03:55:57;;;;;;;20.02;15.10;;;9.50;90.20;;;;;;2076199;28;20029;-66
2024/03/01 03:56:58;;;;;;;20.55;14.50;;;9.50;90.20;;;;;;2075230;28;20066;-67
2024/03/01 03:57:58;;;;;;;18.05;13.95;;;9.50;90.50;;;;;;2078578;28;20025;-67
2024/03/01 03:58:59;;;;;;;22.58;14.93;;;9.50;90.40;;;;;;2075153;28;20033;-66
2024/03/01 04:00:02;;;;;;;20.02;14.90;;;9.50;90.50;;;;;;2077850;28;20049;-67
2024/03/01 04:01:06;;;;;;;22.55;15.40;;;9.40;90.90;;;;;;2077398;28;20023;-67
2024/03/01 04:02:07;;;;;;;19.50;14.50;;;9.40;90.60;;;;;;2076246;28;20041;-68
2024/03/01 04:03:07;;;;;;;19.83;14.45;;;9.50;90.70;;;;;;2077092;28;20121;-67
2024/03/01 04:04:08;;;;;;;21.00;15.20;;;9.40;90.80;;;;;;2077482;28;20035;-67
2024/03/01 04:05:15;;;;;;;18.67;14.85;;;9.40;90.90;;;;;;2076461;28;20049;-68
2024/03/01 04:06:18;;;;;;;17.40;13.95;;;9.40;90.90;;;;;;2077382;28;20526;-67
2024/03/01 04:07:19;;;;;;;21.05;14.88;;;9.40;90.90;;;;;;2077501;28;20025;-66
2024/03/01 04:08:19;;;;;;;18.77;13.80;;;9.40;91.00;;;;;;2077443;28;20030;-66
2024/03/01 04:09:27;;;;;;;19.48;14.85;;;9.40;91.10;;;;;;2076015;28;20037;-67
2024/03/01 04:10:29;;;;;;;19.77;14.32;;;9.40;91.30;;;;;;2076787;28;20469;-66
2024/03/01 04:11:30;;;;;;;18.75;13.80;;;9.40;91.30;;;;;;2076099;28;20470;-66
2024/03/01 04:12:30;;;;;;;17.77;12.93;;;9.40;91.30;;;;;;2076857;28;20432;-68
2024/03/01 04:13:32;;;;;;;19.52;13.80;;;9.40;92.00;;;;;;2076865;28;20060;-66
2024/03/01 04:14:33;;;;;;;18.83;13.93;;;9.40;91.80;;;;;;2075826;28;20037;-69
2024/03/01 04:15:34;;;;;;;19.38;14.00;;;9.40;91.90;;;;;;2074947;28;20503;-66
2024/03/01 04:16:35;;;;;;;21.17;15.20;;;9.40;91.90;;;;;;2076462;28;20022;-66
2024/03/01 04:17:35;;;;;;;20.30;14.05;;;9.40;91.90;;;;;;2075772;28;20633;-67
2024/03/01 04:18:39;;;;;;;17.83;13.77;;;9.40;92.00;;;;;;2076185;28;20047;-68
2024/03/01 04:19:40;;;;;;;22.13;14.68;;;9.40;92.10;;;;;;2074228;28;20025;-67
2024/03/01 04:20:40;;;;;;;17.85;13.20;;;9.40;92.10;;;;;;2074912;28;20037;-67
2024/03/01 04:21:42;;;;;;;17.83;14.05;;;9.40;92.20;;;;;;2071833;28;20510;-67
2024/03/01 04:22:43;;;;;;;17.30;13.45;;;9.40;92.40;;;;;;2082042;28;20071;-66
2024/03/01 04:23:48;;;;;;;19.80;13.55;;;9.40;92.40;;;;;;2083603;28;20021;-66
2024/03/01 04:24:49;;;;;;;18.17;13.40;;;9.40;92.40;;;;;;2085027;28;20466;-67
2024/03/01 04:25:54;;;;;;;19.40;14.15;;;9.40;92.60;;;;;;2086712;28;20130;-66
2024/03/01 04:26:55;;;;;;;18.42;14.02;;;9.40;92.70;;;;;;2084132;28;20033;-67
2024/03/01 04:27:55;;;;;;;19.30;14.15;;;9.40;92.70;;;;;;2085817;28;20049;-66
2024/03/01 04:28:56;;;;;;;16.60;13.57;;;9.40;92.80;;;;;;2084395;28;20163;-69
2024/03/01 04:29:57;;;;;;;18.05;13.60;;;9.40;92.90;;;;;;2083738;28;20058;-67
2024/03/01 04:30:58;;;;;;;18.10;13.80;;;9.40;93.00;;;;;;2084081;28;20017;-71
2024/03/01 04:31:59;;;;;;;18.15;13.35;;;9.40;93.20;;;;;;2084824;28;20041;-73
2024/03/01 04:32:59;;;;;;;17.15;13.32;;;9.40;93.10;;;;;;2084812;28;20027;-72
2024/03/01 04:34:00;;;;;;;16.75;13.00;;;9.40;93.20;;;;;;2085599;28;20052;-74
2024/03/01 04:35:02;;;;;;;16.30;12.73;;;9.30;93.20;;;;;;2083377;28;20022;-73
2024/03/01 04:36:02;;;;;;;19.55;14.63;;;9.40;93.40;;;;;;2084089;28;20108;-72
2024/03/01 04:37:03;;;;;;;19.67;13.80;;;9.40;93.40;;;;;;2084679;28;20029;-72
2024/03/01 04:38:05;;;;;;;17.90;13.40;;;9.30;93.70;;;;;;2084317;28;20366;-72
2024/03/01 04:39:09;;;;;;;20.63;14.02;;;9.40;93.70;;;;;;2084695;28;20030;-72
2024/03/01 04:40:10;;;;;;;17.27;13.02;;;9.30;93.60;;;;;;2082922;28;20022;-72
2024/03/01 04:41:15;;;;;;;16.50;12.82;;;9.30;93.70;;;;;;2085937;28;20036;-72
2024/03/01 04:42:17;;;;;;;16.58;13.27;;;9.30;93.90;;;;;;2084401;28;20497;-73
2024/03/01 04:43:18;;;;;;;20.90;14.13;;;9.30;93.90;;;;;;2083652;28;20041;-72
2024/03/01 04:44:18;;;;;;;19.70;14.13;;;9.30;94.00;;;;;;2084409;28;20020;-71
2024/03/01 04:45:19;;;;;;;18.42;12.88;;;9.30;94.10;;;;;;2083625;28;20048;-72
2024/03/01 04:46:19;;;;;;;16.58;13.15;;;9.30;94.10;;;;;;2083898;28;20033;-73
2024/03/01 04:47:20;;;;;;;17.35;12.98;;;9.30;94.10;;;;;;2083677;28;20488;-72
2024/03/01 04:48:21;;;;;;;18.70;13.68;;;9.30;94.20;;;;;;2075613;28;20460;-72
2024/03/01 04:49:21;;;;;;;19.15;13.82;;;9.30;94.30;;;;;;2077032;28;20065;-72
2024/03/01 04:50:22;;;;;;;17.67;13.70;;;9.30;94.40;;;;;;2084645;28;20034;-73
2024/03/01 04:51:26;;;;;;;16.90;12.68;;;9.30;94.70;;;;;;2085357;28;20025;-73
2024/03/01 04:52:26;;;;;;;16.05;12.82;;;9.30;94.80;;;;;;2083697;28;20021;-71
2024/03/01 04:53:27;;;;;;;18.23;13.30;;;9.30;94.80;;;;;;2085612;28;20093;-74
2024/03/01 04:54:27;;;;;;;19.55;13.93;;;9.30;94.80;;;;;;2083078;28;20067;-73
2024/03/01 04:55:28;;;;;;;19.67;13.70;;;9.30;94.90;;;;;;2083831;28;20052;-71
2024/03/01 04:56:28;;;;;;;19.38;13.93;;;9.20;95.20;;;;;;2085810;28;20399;-74
2024/03/01 04:57:32;;;;;;;17.80;13.40;;;9.20;95.30;;;;;;2084126;28;20429;-72
2024/03/01 04:58:32;;;;;;;18.35;13.50;;;9.20;95.30;;;;;;2083803;28;20449;-74
2024/03/01 04:59:38;;;;;;;17.95;13.32;;;9.30;95.50;;;;;;2086705;28;20351;-72
2024/03/01 05:00:39;;;;;;;20.00;13.75;;;9.20;95.60;;;;;;2084647;28;20034;-72
2024/03/01 05:01:41;;;;;;;17.27;13.27;;;9.20;95.70;;;;;;2085672;28;20018;-71
2024/03/01 05:02:42;;;;;;;18.05;13.75;;;9.20;95.80;;;;;;2085266;28;20040;-71
2024/03/01 05:03:46;;;;;;;17.65;13.48;;;9.20;95.90;;;;;;2079456;28;20433;-71
2024/03/01 05:04:46;;;;;;;17.80;13.55;;;9.20;96.10;;;;;;2079919;28;20056;-72
2024/03/01 05:05:47;;;;;;;18.83;13.70;;;9.20;96.10;;;;;;2083270;28;20037;-72
2024/03/01 05:06:47;;;;;;;17.75;13.27;;;9.30;96.10;;;;;;2074607;28;20052;-72
2024/03/01 05:07:48;;;;;;;18.38;12.95;;;9.30;96.20;;;;;;2078356;28;20041;-72
2024/03/01 05:08:49;;;;;;;18.67;13.02;;;9.20;96.10;;;;;;2082762;28;20040;-72
2024/03/01 05:09:49;;;;;;;18.80;13.63;;;9.30;96.20;;;;;;2084656;28;20033;-72
2024/03/01 05:10:50;;;;;;;19.38;13.57;;;9.30;96.30;;;;;;2082153;28;20434;-71
2024/03/01 05:11:50;;;;;;;19.60;13.32;;;9.20;96.40;;;;;;2083986;28;20156;-74
2024/03/01 05:12:51;;;;;;;19.52;13.30;;;9.20;96.80;;;;;;2085678;28;20051;-74
2024/03/01 05:13:52;;;;;;;16.55;12.15;;;9.30;96.60;;;;;;2084915;28;20080;-72